Time;durP1;ratioP1;P1;durP2;ratioP2;P2;SDS_P1;SDS_P2;PMS_P1;PMS_P2;Temp;Humidity;BMP_temperature;BMP_pressure;BME280_temperature;BME280_humidity;BME280_pressure;Samples;Min_cycle;Max_cycle;Signal;HPM_P1;HPM_P2
2022/11/09 00:01:55;;;;;;;21.00;9.70;;;;;;;2.58;77.44;100835.78;4801542;28;20078;-64
2022/11/09 00:04:40;;;;;;;16.17;9.48;;;;;;;2.71;75.80;100823.19;4833557;28;20045;-63
2022/11/09 00:07:33;;;;;;;15.30;8.35;;;;;;;2.92;75.25;100826.31;4845764;28;20043;-64
2022/11/09 00:10:08;;;;;;;12.15;7.78;;;;;;;2.80;72.92;100761.50;4856770;28;20133;-63
2022/11/09 00:12:52;;;;;;;14.23;7.85;;;;;;;3.32;71.39;100819.47;4849975;28;20347;-63
2022/11/09 00:15:38;;;;;;;14.73;7.47;;;;;;;3.43;69.79;100807.63;4859174;28;20046;-64
2022/11/09 00:21:55;;;;;;;13.77;7.70;;;;;;;3.75;67.64;100796.25;4845498;28;20038;-63
2022/11/09 00:24:32;;;;;;;12.43;7.00;;;;;;;3.93;66.80;100795.72;4781338;29;20298;-62
2022/11/09 00:27:16;;;;;;;13.20;7.10;;;;;;;4.03;65.89;100795.03;4783392;29;20063;-62
2022/11/09 00:30:11;;;;;;;16.13;9.02;;;;;;;4.15;64.84;100790.09;4779559;29;20071;-63
2022/11/09 00:36:00;;;;;;;14.00;7.07;;;;;;;4.32;62.94;100798.16;4806728;29;20139;-63
2022/11/09 00:38:45;;;;;;;15.13;7.90;;;;;;;4.40;63.24;100791.41;4787337;29;20115;-64
2022/11/09 00:41:37;;;;;;;13.77;7.13;;;;;;;4.46;62.09;100780.28;4787358;29;20119;-62
2022/11/09 00:44:19;;;;;;;11.85;6.68;;;;;;;4.57;61.84;100789.09;4802897;29;20055;-62
2022/11/09 00:47:06;;;;;;;18.40;7.47;;;;;;;4.73;61.72;100791.09;4804782;29;20058;-63
2022/11/09 00:49:56;;;;;;;18.67;7.20;;;;;;;4.81;60.88;100793.78;4802890;29;20040;-62
2022/11/09 00:53:04;;;;;;;12.45;6.60;;;;;;;4.88;59.93;100789.59;4770791;29;20103;-63
2022/11/09 00:55:48;;;;;;;21.02;7.03;;;;;;;4.94;60.17;100789.66;4753167;29;20056;-63
2022/11/09 00:58:22;;;;;;;14.43;7.72;;;;;;;5.01;59.34;100780.28;4812370;28;20067;-63
2022/11/09 01:01:06;;;;;;;14.55;7.25;;;;;;;5.00;59.18;100769.06;4801250;28;20118;-63
2022/11/09 01:03:55;;;;;;;13.50;6.65;;;;;;;5.17;59.09;100767.56;4853804;28;20053;-64
2022/11/09 01:09:29;;;;;;;16.42;7.93;;;;;;;5.35;58.79;100766.06;4853628;28;20113;-63
2022/11/09 01:12:47;;;;;;;14.73;7.80;;;;;;;5.34;57.02;100759.13;4865961;28;20046;-63
2022/11/09 01:18:37;;;;;;;17.23;7.85;;;;;;;5.30;57.81;100747.00;4824360;28;20041;-63
2022/11/09 01:21:23;;;;;;;16.70;8.60;;;;;;;5.13;56.87;100707.91;4860333;28;20058;-63
2022/11/09 01:24:14;;;;;;;15.27;8.60;;;;;;;5.40;56.58;100738.50;4836365;28;20055;-63
2022/11/09 01:27:14;;;;;;;27.10;10.43;;;;;;;5.39;56.00;100732.44;4840498;28;20050;-63
2022/11/09 01:29:54;;;;;;;16.35;9.27;;;;;;;5.45;57.17;100736.81;4812514;28;20074;-63
2022/11/09 01:32:36;;;;;;;26.40;11.30;;;;;;;5.48;56.37;100720.44;4842897;28;20186;-63
2022/11/09 01:37:59;;;;;;;21.55;10.45;;;;;;;5.73;56.31;100726.78;4866947;28;20053;-63
2022/11/09 01:40:46;;;;;;;22.35;10.27;;;;;;;5.81;55.74;100730.31;4817156;28;20121;-62
2022/11/09 01:43:40;;;;;;;27.15;12.88;;;;;;;5.86;56.12;100727.75;4818101;28;20562;-62
2022/11/09 01:46:27;;;;;;;21.45;10.70;;;;;;;5.29;55.61;100610.50;4836381;28;20098;-63
2022/11/09 01:52:41;;;;;;;24.75;10.35;;;;;;;6.12;55.02;100694.34;4840753;28;20046;-62
2022/11/09 01:55:27;;;;;;;25.55;11.55;;;;;;;6.25;54.64;100716.94;4842665;28;20060;-63
2022/11/09 02:01:09;;;;;;;27.85;10.85;;;;;;;6.18;54.94;100689.19;4795831;28;20052;-62
2022/11/09 02:03:56;;;;;;;20.50;9.80;;;;;;;6.28;54.23;100695.31;4772088;28;20054;-63
2022/11/09 02:06:37;;;;;;;17.58;9.88;;;;;;;6.18;54.30;100668.44;4869633;28;20119;-63
2022/11/09 02:09:32;;;;;;;19.60;9.10;;;;;;;6.33;54.74;100684.13;4839652;28;20147;-63
2022/11/09 02:12:11;;;;;;;23.75;10.93;;;;;;;6.43;54.58;100680.72;4843120;28;20239;-63
2022/11/09 02:14:52;;;;;;;19.98;10.60;;;;;;;6.40;53.71;100680.72;4828343;28;20069;-63
2022/11/09 02:18:11;;;;;;;23.05;11.18;;;;;;;6.42;54.38;100663.44;4844777;28;20054;-63
2022/11/09 02:21:08;;;;;;;29.23;13.75;;;;;;;6.52;54.05;100668.69;4850679;28;20058;-63
2022/11/09 02:23:53;;;;;;;27.02;13.25;;;;;;;6.61;54.13;100668.72;4847867;28;20065;-62
2022/11/09 02:26:56;;;;;;;31.85;14.30;;;;;;;6.68;53.63;100670.50;4836080;28;20051;-64
2022/11/09 02:32:30;;;;;;;32.63;14.63;;;;;;;6.65;53.59;100653.19;4782390;28;20082;-63
2022/11/09 02:35:16;;;;;;;20.90;10.60;;;;;;;6.73;53.33;100648.03;4822036;28;20128;-64
2022/11/09 02:38:11;;;;;;;19.48;10.65;;;;;;;6.75;52.03;100632.47;4805418;28;20078;-63
2022/11/09 02:46:45;;;;;;;17.65;11.38;;;;;;;6.93;51.30;100639.47;4843732;28;20096;-62
2022/11/09 02:52:46;;;;;;;21.77;11.00;;;;;;;7.06;51.24;100636.06;4827897;28;20064;-62
2022/11/09 02:55:47;;;;;;;18.60;10.75;;;;;;;7.10;50.42;100622.22;4845458;28;20583;-62
2022/11/09 02:58:37;;;;;;;20.63;11.20;;;;;;;7.11;50.76;100608.34;4802249;28;20044;-63
2022/11/09 03:01:28;;;;;;;20.92;10.90;;;;;;;7.17;50.76;100613.59;4836776;28;20064;-63
2022/11/09 03:04:22;;;;;;;17.85;10.48;;;;;;;7.27;51.02;100599.75;4791884;28;20047;-62
2022/11/09 03:09:52;;;;;;;16.50;9.95;;;;;;;7.34;49.70;100596.31;4842200;28;20070;-62
2022/11/09 03:12:37;;;;;;;18.35;10.30;;;;;;;7.13;49.95;100604.03;4848588;28;20043;-62
2022/11/09 03:15:22;;;;;;;19.90;10.63;;;;;;;6.93;50.01;100595.31;4830509;28;20055;-62
2022/11/09 03:18:12;;;;;;;22.25;11.13;;;;;;;6.94;50.85;100578.84;4831213;28;20065;-62
2022/11/09 03:20:53;;;;;;;17.60;10.38;;;;;;;7.07;49.93;100585.84;4842133;28;20043;-62
2022/11/09 03:23:42;;;;;;;18.27;9.45;;;;;;;7.14;49.79;100569.41;4807638;28;20081;-63
2022/11/09 03:26:33;;;;;;;19.75;10.38;;;;;;;7.23;49.80;100577.22;4828213;28;20059;-62
2022/11/09 03:29:18;;;;;;;14.80;9.20;;;;;;;7.19;48.20;100565.09;4809733;28;20055;-62
2022/11/09 03:32:04;;;;;;;20.70;9.57;;;;;;;7.19;48.93;100559.88;4855750;28;20095;-62
2022/11/09 03:34:58;;;;;;;17.00;9.07;;;;;;;7.20;48.87;100561.63;4840225;28;20048;-62
2022/11/09 03:37:51;;;;;;;18.35;8.88;;;;;;;7.23;48.97;100560.75;4828980;28;20046;-62
2022/11/09 03:40:31;;;;;;;17.67;9.57;;;;;;;7.24;49.25;100547.78;4831207;28;20051;-62
2022/11/09 03:43:18;;;;;;;16.98;9.18;;;;;;;7.25;48.51;100554.69;4833991;28;20067;-62
2022/11/09 03:46:03;;;;;;;18.30;8.82;;;;;;;7.31;49.00;100544.31;4849023;28;20471;-62
2022/11/09 03:48:46;;;;;;;13.63;8.70;;;;;;;7.32;48.39;100540.84;4829476;28;20050;-62
2022/11/09 03:51:37;;;;;;;14.90;8.75;;;;;;;7.40;48.94;100533.06;4829435;28;20051;-62
2022/11/09 03:54:18;;;;;;;14.90;8.85;;;;;;;7.44;48.28;100528.72;4835762;28;20046;-62
2022/11/09 03:57:00;;;;;;;15.60;8.00;;;;;;;7.40;48.36;100525.25;4828221;28;20527;-62
2022/11/09 04:02:47;;;;;;;14.23;8.10;;;;;;;7.26;48.67;100517.47;4800527;29;20112;-62
2022/11/09 04:05:32;;;;;;;12.73;7.97;;;;;;;7.10;49.43;100507.88;4763698;29;20051;-63
2022/11/09 04:08:35;;;;;;;14.13;8.27;;;;;;;6.85;49.54;100510.44;4811855;28;20046;-63
2022/11/09 04:11:32;;;;;;;16.02;8.50;;;;;;;6.67;50.14;100512.97;4782461;29;20047;-63
2022/11/09 04:14:12;;;;;;;15.30;8.77;;;;;;;6.52;50.25;100507.72;4793541;28;20393;-63
2022/11/09 04:17:17;;;;;;;14.60;8.40;;;;;;;6.40;50.44;100509.41;4823788;28;20046;-63
2022/11/09 04:19:59;;;;;;;15.27;7.90;;;;;;;6.40;51.26;100509.41;4846566;28;20089;-63
2022/11/09 04:22:48;;;;;;;13.40;8.30;;;;;;;6.53;51.39;100506.84;4853806;28;20050;-62
2022/11/09 04:25:44;;;;;;;13.70;8.48;;;;;;;6.67;51.11;100497.41;4791506;28;20195;-63
2022/11/09 04:28:38;;;;;;;14.23;8.02;;;;;;;6.69;50.96;100501.72;4828068;28;20080;-62
2022/11/09 04:31:28;;;;;;;15.55;8.65;;;;;;;6.77;50.82;100493.09;4818385;28;20255;-63
2022/11/09 04:34:19;;;;;;;15.73;8.80;;;;;;;6.91;51.52;100492.28;4790463;28;20050;-63
2022/11/09 04:37:21;;;;;;;15.05;8.30;;;;;;;7.06;50.59;100500.94;4833083;28;20125;-63
2022/11/09 04:40:19;;;;;;;13.55;7.72;;;;;;;7.19;50.33;100496.63;4877446;28;20116;-63
2022/11/09 04:43:06;;;;;;;14.73;8.15;;;;;;;7.26;50.33;100494.06;4891446;28;20119;-63
2022/11/09 04:51:22;;;;;;;13.02;7.95;;;;;;;6.87;50.44;100407.41;4857905;28;20369;-62
2022/11/09 04:54:18;;;;;;;12.85;8.43;;;;;;;7.21;50.21;100464.56;4860258;28;20046;-63
2022/11/09 04:56:59;;;;;;;12.85;7.20;;;;;;;7.18;50.16;100482.78;4860665;28;20065;-62
2022/11/09 04:59:43;;;;;;;12.63;7.90;;;;;;;7.12;49.64;100480.19;4878597;28;20061;-63
2022/11/09 05:02:24;;;;;;;12.75;7.40;;;;;;;7.09;49.92;100475.00;4872451;28;20449;-64
2022/11/09 05:05:07;;;;;;;14.85;7.95;;;;;;;7.01;50.29;100471.50;4892286;28;20149;-63
2022/11/09 05:08:12;;;;;;;15.05;8.05;;;;;;;6.92;50.29;100461.97;4864287;28;20105;-63
2022/11/09 05:11:00;;;;;;;16.52;8.32;;;;;;;6.78;51.01;100443.75;4869661;28;20318;-63
2022/11/09 05:13:50;;;;;;;14.55;9.13;;;;;;;6.80;50.67;100447.22;4847955;28;20092;-63
2022/11/09 05:16:30;;;;;;;13.00;7.78;;;;;;;6.82;51.18;100455.88;4887165;28;20118;-62
2022/11/09 05:19:05;;;;;;;14.98;8.20;;;;;;;6.83;51.39;100456.75;4883459;28;20091;-62
2022/11/09 05:21:51;;;;;;;14.43;8.18;;;;;;;6.79;50.84;100450.69;4873979;28;20056;-61
2022/11/09 05:25:04;;;;;;;12.43;7.68;;;;;;;6.75;50.38;100446.34;4864147;28;20273;-61
2022/11/09 05:27:56;;;;;;;14.35;7.53;;;;;;;6.68;50.23;100447.19;4863267;28;20323;-62
2022/11/09 05:33:22;;;;;;;12.93;7.60;;;;;;;6.57;50.91;100448.91;4868642;28;20053;-62
2022/11/09 05:35:58;;;;;;;14.70;8.20;;;;;;;6.52;51.18;100446.28;4886975;28;20052;-62
2022/11/09 05:38:48;;;;;;;12.13;8.00;;;;;;;6.44;51.67;100448.88;4896315;28;20057;-62
2022/11/09 05:41:31;;;;;;;13.32;7.00;;;;;;;6.39;51.56;100454.88;4840946;28;20469;-61
2022/11/09 05:44:34;;;;;;;;;;;;;;;6.33;51.54;100445.34;4865640;28;20041;-62
2022/11/09 05:47:14;;;;;;;14.00;7.28;;;;;;;6.27;52.41;100442.75;4859398;28;19917;-62
2022/11/09 05:53:06;;;;;;;11.18;6.72;;;;;;;6.15;52.53;100434.91;4834117;28;20049;-62
2022/11/09 05:55:45;;;;;;;12.75;7.10;;;;;;;6.11;52.47;100438.34;4871160;28;20057;-62
2022/11/09 05:58:31;;;;;;;14.77;7.55;;;;;;;6.05;52.89;100434.00;4890842;28;20048;-62
2022/11/09 06:01:50;;;;;;;13.88;8.57;;;;;;;5.97;52.87;100431.34;4830878;28;20392;-62
2022/11/09 06:04:40;;;;;;;16.70;8.35;;;;;;;5.87;53.29;100426.97;4902445;28;20053;-62
2022/11/09 06:07:24;;;;;;;14.23;7.82;;;;;;;5.80;53.82;100414.81;4830854;28;20091;-62
2022/11/09 06:10:07;;;;;;;16.42;8.70;;;;;;;5.71;54.15;100410.41;4866113;28;20207;-61
2022/11/09 06:12:44;;;;;;;14.48;7.85;;;;;;;5.60;54.79;100409.50;4892932;28;20049;-61
2022/11/09 06:15:21;;;;;;;13.50;7.00;;;;;;;5.50;54.78;100408.59;4895549;28;20069;-62
2022/11/09 06:18:31;;;;;;;19.38;7.63;;;;;;;5.41;55.57;100398.16;4891598;28;20064;-62
2022/11/09 06:21:16;;;;;;;11.82;7.40;;;;;;;5.30;55.66;100394.63;4875582;28;20306;-62
2022/11/09 06:23:55;;;;;;;14.50;8.10;;;;;;;5.17;56.03;100384.16;4904911;28;20109;-62
2022/11/09 06:26:44;;;;;;;24.40;10.50;;;;;;;4.99;56.41;100360.69;4884986;28;20067;-62
2022/11/09 06:29:30;;;;;;;24.20;12.32;;;;;;;5.18;56.39;100375.53;4867395;28;20045;-62
2022/11/09 06:32:12;;;;;;;26.35;12.73;;;;;;;5.13;56.99;100374.63;4874670;28;20038;-63
2022/11/09 06:35:18;;;;;;;20.83;10.27;;;;;;;5.11;57.02;100363.38;4893274;28;20477;-62
2022/11/09 06:38:20;;;;;;;21.02;10.10;;;;;;;5.12;57.01;100365.13;4847164;28;20046;-62
2022/11/09 06:41:01;;;;;;;18.60;9.55;;;;;;;5.01;57.39;100346.03;4893906;28;20049;-62
2022/11/09 06:46:43;;;;;;;12.57;8.25;;;;;;;5.07;57.47;100346.09;4856094;28;20071;-62
2022/11/09 06:49:20;;;;;;;18.23;8.07;;;;;;;5.08;57.41;100347.81;4876098;28;20049;-61
2022/11/09 06:52:14;;;;;;;16.05;8.00;;;;;;;5.03;57.72;100328.81;4898852;28;20056;-62
2022/11/09 06:55:09;;;;;;;20.25;8.05;;;;;;;5.08;57.77;100337.47;4874085;28;20049;-62
2022/11/09 06:58:07;;;;;;;20.55;8.20;;;;;;;4.98;57.56;100330.50;4892336;28;20037;-62
2022/11/09 07:00:47;;;;;;;18.30;8.88;;;;;;;5.00;58.23;100339.16;4910034;28;20054;-62
2022/11/09 07:03:51;;;;;;;21.58;8.75;;;;;;;4.95;58.39;100348.59;4875944;28;20084;-61
2022/11/09 07:06:36;;;;;;;19.33;8.48;;;;;;;4.95;58.64;100346.00;4882763;28;20184;-61
2022/11/09 07:09:26;;;;;;;16.13;7.60;;;;;;;4.96;59.07;100347.72;4839259;28;20049;-62
2022/11/09 07:12:11;;;;;;;12.70;7.63;;;;;;;5.02;59.08;100352.09;4899853;28;20058;-63
2022/11/09 07:15:04;;;;;;;14.77;7.07;;;;;;;5.02;58.92;100342.63;4891687;28;21123;-63
2022/11/09 07:18:00;;;;;;;17.83;7.50;;;;;;;5.05;58.98;100347.81;4893967;28;20049;-63
2022/11/09 07:20:43;;;;;;;13.15;6.90;;;;;;;5.08;59.07;100326.25;4894563;28;20163;-62
2022/11/09 07:26:19;;;;;;;17.65;8.07;;;;;;;5.12;59.33;100313.34;4853616;28;20109;-64
2022/11/09 07:29:06;;;;;;;22.92;9.82;;;;;;;5.15;59.22;100315.94;4882718;28;20083;-63
2022/11/09 07:31:53;;;;;;;38.88;11.38;;;;;;;5.17;59.53;100301.28;4907473;28;20098;-62
2022/11/09 07:34:39;;;;;;;17.92;8.10;;;;;;;5.17;59.57;100300.41;4919569;28;20064;-61
2022/11/09 07:37:25;;;;;;;23.10;9.07;;;;;;;5.13;59.39;100294.34;4873003;28;20461;-63
2022/11/09 07:40:10;;;;;;;16.83;8.52;;;;;;;5.10;59.61;100299.50;4890811;28;20071;-62
2022/11/09 07:48:37;;;;;;;23.45;11.80;;;;;;;5.14;61.11;100275.38;4854325;28;20048;-62
2022/11/09 07:51:17;;;;;;;31.02;13.98;;;;;;;5.14;61.29;100272.78;4858671;28;20038;-61
2022/11/09 07:54:02;;;;;;;42.33;14.77;;;;;;;5.13;62.21;100262.41;4892966;28;20878;-61
2022/11/09 07:56:37;;;;;;;22.38;10.40;;;;;;;5.18;61.89;100256.38;4890077;28;20059;-61
2022/11/09 07:59:19;;;;;;;28.25;12.13;;;;;;;5.19;62.04;100258.13;4916947;28;20204;-62
2022/11/09 08:02:17;;;;;;;27.55;11.73;;;;;;;5.19;62.56;100252.94;4918336;28;20095;-62
2022/11/09 08:05:14;;;;;;;23.17;10.50;;;;;;;5.17;62.81;100249.47;4892029;28;20051;-62
2022/11/09 08:08:09;;;;;;;18.73;8.98;;;;;;;5.00;63.13;100201.91;4904660;28;20215;-62
2022/11/09 08:10:51;;;;;;;16.15;8.05;;;;;;;5.25;63.74;100226.19;4837667;28;20045;-61
2022/11/09 08:13:48;;;;;;;20.13;7.85;;;;;;;5.29;63.88;100219.28;4884167;28;20052;-61
2022/11/09 08:16:29;;;;;;;19.70;8.55;;;;;;;5.32;63.97;100224.50;4891199;28;20053;-62
2022/11/09 08:19:17;;;;;;;12.10;7.07;;;;;;;5.30;64.40;100224.50;4901754;28;20388;-61
2022/11/09 08:21:56;;;;;;;17.90;7.47;;;;;;;5.30;64.59;100215.84;4898837;28;20179;-61
2022/11/09 08:25:13;;;;;;;13.52;7.88;;;;;;;5.26;64.92;100214.09;4869665;28;20058;-64
2022/11/09 08:27:56;;;;;;;18.65;7.32;;;;;;;5.23;65.30;100206.31;4899480;28;20098;-62
2022/11/09 08:30:38;;;;;;;15.95;7.13;;;;;;;5.27;65.42;100208.06;4913832;28;20046;-63
2022/11/09 08:33:11;;;;;;;19.30;7.35;;;;;;;5.19;65.81;100201.13;4889547;28;20041;-63
2022/11/09 08:36:20;;;;;;;15.57;7.78;;;;;;;5.26;66.11;100211.50;4889566;28;20116;-63
2022/11/09 08:39:07;;;;;;;15.80;7.78;;;;;;;5.23;66.03;100198.56;4879693;28;20377;-61
2022/11/09 08:42:00;;;;;;;18.20;7.93;;;;;;;5.26;66.42;100206.31;4848547;28;20046;-64
2022/11/09 08:47:34;;;;;;;21.55;9.43;;;;;;;5.24;66.76;100192.50;4881673;28;20091;-63
2022/11/09 08:50:20;;;;;;;14.40;7.25;;;;;;;5.23;66.91;100195.97;4895854;28;20396;-63
2022/11/09 08:52:58;;;;;;;14.60;7.18;;;;;;;5.28;67.38;100186.47;4893021;28;20183;-64
2022/11/09 08:55:37;;;;;;;13.80;7.50;;;;;;;5.22;67.22;100178.66;4888831;28;20055;-64
2022/11/09 08:58:28;;;;;;;13.75;6.75;;;;;;;5.28;67.26;100184.75;4851055;28;20050;-62
2022/11/09 09:03:58;;;;;;;18.92;7.10;;;;;;;5.27;67.77;100175.25;4899911;28;20071;-63
2022/11/09 09:06:45;;;;;;;17.85;7.30;;;;;;;5.32;68.18;100175.28;4888581;28;20057;-65
2022/11/09 09:09:47;;;;;;;14.80;6.75;;;;;;;5.33;68.33;100164.91;4897905;28;20061;-65
2022/11/09 09:12:48;;;;;;;12.85;6.68;;;;;;;5.31;68.48;100164.03;4916587;28;20053;-63
2022/11/09 09:15:36;;;;;;;12.70;6.03;;;;;;;5.35;68.51;100167.50;4798275;28;20071;-64
2022/11/09 09:18:30;;;;;;;18.38;6.70;;;;;;;5.00;68.56;100100.03;4790409;28;20053;-64
2022/11/09 09:21:21;;;;;;;13.63;6.82;;;;;;;5.35;68.70;100154.56;4800843;28;20053;-63
2022/11/09 09:24:19;;;;;;;29.75;11.98;;;;;;;5.35;68.85;100154.56;4805854;28;20051;-64
2022/11/09 09:27:10;;;;;;;18.90;9.05;;;;;;;5.36;69.18;100156.28;4811317;28;20055;-63
2022/11/09 09:30:03;;;;;;;21.98;8.40;;;;;;;5.38;69.12;100146.78;4829342;28;20054;-64
2022/11/09 09:33:05;;;;;;;22.52;7.70;;;;;;;5.44;69.16;100144.19;4813276;28;20130;-64
2022/11/09 09:36:06;;;;;;;14.02;6.85;;;;;;;5.43;69.25;100142.47;4828475;28;20062;-62
2022/11/09 09:38:50;;;;;;;15.10;6.03;;;;;;;5.39;69.71;100125.19;4798906;28;20050;-62
2022/11/09 09:41:31;;;;;;;;;;;;;;;5.39;69.74;100135.53;4844383;28;20093;-62
2022/11/09 09:44:26;;;;;;;14.00;5.78;;;;;;;5.37;70.01;100122.59;4835434;28;19925;-62
2022/11/09 09:47:17;;;;;;;12.13;6.57;;;;;;;5.28;70.23;100095.81;4812191;28;20050;-64
2022/11/09 09:50:02;;;;;;;13.07;6.63;;;;;;;5.37;70.17;100098.44;4827041;28;20057;-63
2022/11/09 09:52:52;;;;;;;13.50;5.47;;;;;;;4.63;70.59;99973.94;4848204;28;20052;-63
2022/11/09 09:55:53;;;;;;;11.05;5.78;;;;;;;5.37;70.77;100090.66;4895887;28;20068;-63
2022/11/09 09:58:42;;;;;;;15.73;5.45;;;;;;;5.41;70.80;100076.81;4895053;28;20080;-63
2022/11/09 10:01:46;;;;;;;13.68;5.82;;;;;;;5.39;71.09;100068.16;4888035;28;20056;-64
2022/11/09 10:04:34;;;;;;;15.50;6.40;;;;;;;5.37;71.22;100064.75;4913737;28;20060;-64
2022/11/09 10:07:22;;;;;;;12.35;6.55;;;;;;;5.22;71.54;100036.19;4882096;28;20038;-64
2022/11/09 10:10:43;;;;;;;10.75;5.50;;;;;;;5.30;71.96;100057.81;4895451;28;20111;-64
2022/11/09 10:17:09;;;;;;;12.32;5.75;;;;;;;5.23;72.84;100046.56;4815466;28;20041;-64
2022/11/09 10:20:04;;;;;;;12.13;5.78;;;;;;;5.26;73.56;100030.16;4892573;28;20393;-63
2022/11/09 10:23:06;;;;;;;15.55;5.55;;;;;;;5.30;73.79;100037.09;4887501;28;20045;-63
2022/11/09 10:25:59;;;;;;;15.20;5.00;;;;;;;5.29;74.08;100020.69;4886181;28;20041;-63
2022/11/09 10:28:53;;;;;;;14.55;6.38;;;;;;;5.31;74.38;100023.25;4917093;28;20349;-63
2022/11/09 10:32:15;;;;;;;15.30;5.60;;;;;;;5.29;74.88;99999.97;4882342;28;20349;-64
2022/11/09 10:35:03;;;;;;;10.95;5.38;;;;;;;5.29;75.40;99993.91;4907415;28;20060;-63
2022/11/09 10:37:58;;;;;;;13.48;5.15;;;;;;;5.29;75.69;99988.72;4878956;28;20054;-63
2022/11/09 10:40:44;;;;;;;16.30;6.13;;;;;;;5.34;76.33;99992.16;4877955;28;20056;-64
2022/11/09 10:43:27;;;;;;;12.68;6.30;;;;;;;5.34;76.55;99995.66;4921158;28;20076;-63
2022/11/09 10:46:08;;;;;;;14.25;5.18;;;;;;;5.37;77.38;99992.19;4881710;28;20120;-63
2022/11/09 10:48:54;;;;;;;16.02;5.60;;;;;;;5.39;77.90;99980.06;4908386;28;20478;-63
2022/11/09 10:51:41;;;;;;;11.77;5.40;;;;;;;5.46;78.21;99968.00;4859398;28;20062;-64
2022/11/09 10:54:36;;;;;;;13.18;5.85;;;;;;;5.52;78.26;99966.28;4833132;28;20053;-64
2022/11/09 10:57:22;;;;;;;16.98;6.13;;;;;;;5.37;78.15;99924.84;4863580;28;20049;-63
2022/11/09 11:00:09;;;;;;;13.05;5.57;;;;;;;5.24;77.91;99902.38;4862380;28;20459;-63
2022/11/09 11:07:07;;;;;;;17.17;5.53;;;;;;;5.61;78.30;99955.03;4882240;28;20092;-63
2022/11/09 11:10:38;;;;;;;12.32;4.78;;;;;;;5.55;78.38;99940.34;4833526;28;20054;-64
2022/11/09 11:14:08;;;;;;;14.68;4.97;;;;;;;5.57;78.24;99938.63;4800664;28;20122;-63
2022/11/09 11:17:56;;;;;;;15.02;4.95;;;;;;;5.69;77.97;99936.88;4815440;28;20128;-64
2022/11/09 11:29:00;;;;;;;12.55;4.25;;;;;;;5.71;77.72;99914.41;4771635;29;20083;-63
2022/11/09 11:31:46;;;;;;;13.60;4.72;;;;;;;5.79;77.69;99928.19;4770140;29;20044;-63
2022/11/09 11:34:48;;;;;;;16.25;4.63;;;;;;;5.79;77.72;99933.38;4735240;29;20043;-63
2022/11/09 11:41:48;;;;;;;16.80;4.68;;;;;;;5.80;77.68;99914.38;4773201;29;20048;-63
2022/11/09 11:45:03;;;;;;;15.48;5.00;;;;;;;5.89;77.57;99929.03;4756836;29;20263;-63
2022/11/09 11:48:15;;;;;;;22.48;5.35;;;;;;;5.94;77.70;99928.22;4693994;29;20567;-63
2022/11/09 11:51:02;;;;;;;21.27;5.40;;;;;;;5.92;77.68;99923.88;4678623;29;20057;-63
2022/11/09 11:54:04;;;;;;;19.23;5.30;;;;;;;5.95;78.05;99923.88;4729979;29;20456;-62
2022/11/09 11:57:05;;;;;;;13.88;5.03;;;;;;;5.95;78.21;99923.88;4715944;29;21008;-63
2022/11/09 12:00:24;;;;;;;17.63;5.28;;;;;;;5.98;78.09;99908.31;4715066;29;20131;-63
2022/11/09 12:03:22;;;;;;;15.00;4.60;;;;;;;6.04;78.30;99898.78;4725785;29;20077;-63
2022/11/09 12:06:37;;;;;;;14.77;4.90;;;;;;;6.08;77.96;99880.63;4752958;29;20060;-63
2022/11/09 12:12:57;;;;;;;16.90;5.05;;;;;;;6.00;78.12;99860.75;4777038;29;20104;-63
2022/11/09 12:16:00;;;;;;;14.52;5.95;;;;;;;6.11;78.15;99878.00;4720396;29;20064;-63
2022/11/09 12:19:12;;;;;;;21.77;5.40;;;;;;;6.17;78.16;99872.81;4774775;29;20049;-63
2022/11/09 12:22:07;;;;;;;16.58;5.25;;;;;;;6.17;78.32;99867.59;4801012;28;20671;-62
2022/11/09 12:24:56;;;;;;;;;;;;;;;6.18;78.30;99874.50;4791896;28;20043;-62
2022/11/09 12:28:13;;;;;;;18.35;5.18;;;;;;;6.14;78.36;99852.03;4765987;28;19918;-63
2022/11/09 12:31:40;;;;;;;21.20;5.70;;;;;;;6.20;78.39;99852.88;4797723;28;20063;-62
2022/11/09 12:34:39;;;;;;;21.13;5.75;;;;;;;6.21;78.44;99856.31;4811988;28;20163;-62
2022/11/09 12:37:21;;;;;;;21.67;5.63;;;;;;;5.94;78.40;99802.84;4860233;28;20072;-62
2022/11/09 12:40:09;;;;;;;18.52;6.05;;;;;;;6.20;78.50;99858.06;4900516;28;20072;-62
2022/11/09 12:43:04;;;;;;;23.10;7.10;;;;;;;5.50;78.55;99747.72;4875825;28;20049;-62
2022/11/09 12:46:14;;;;;;;23.40;7.43;;;;;;;6.21;78.43;99866.69;4881497;28;20165;-62
2022/11/09 12:49:17;;;;;;;20.10;6.72;;;;;;;6.16;78.50;99847.72;4868510;28;20080;-62
2022/11/09 12:51:58;;;;;;;25.75;6.57;;;;;;;6.21;78.46;99854.59;4885792;28;20059;-63
2022/11/09 12:54:42;;;;;;;21.37;7.13;;;;;;;6.18;78.79;99843.38;4899943;28;20049;-62
2022/11/09 12:57:34;;;;;;;23.77;7.00;;;;;;;6.17;78.83;99846.84;4872969;28;20080;-62
2022/11/09 13:00:48;;;;;;;25.20;5.78;;;;;;;6.16;78.82;99834.75;4892430;28;20053;-62
2022/11/09 13:03:41;;;;;;;19.63;6.13;;;;;;;6.28;78.41;99839.88;4886125;28;20491;-63
2022/11/09 13:06:35;;;;;;;17.27;5.70;;;;;;;6.31;78.06;99850.22;4878809;28;20094;-62
2022/11/09 13:12:42;;;;;;;21.77;6.18;;;;;;;6.41;77.45;99851.03;4860987;28;20053;-62
2022/11/09 13:15:40;;;;;;;21.27;6.78;;;;;;;6.30;77.11;99838.13;4875339;28;20339;-62
2022/11/09 13:18:50;;;;;;;23.58;6.50;;;;;;;6.40;76.92;99855.38;4855338;28;20050;-62
2022/11/09 13:21:51;;;;;;;17.17;5.38;;;;;;;6.52;76.20;99848.38;4838358;28;20259;-61
2022/11/09 13:24:55;;;;;;;21.42;5.80;;;;;;;6.56;75.98;99839.69;4897049;28;20041;-60
2022/11/09 13:27:46;;;;;;;19.00;5.97;;;;;;;6.63;75.78;99836.19;4918295;28;20060;-61
2022/11/09 13:30:52;;;;;;;17.70;6.28;;;;;;;6.73;75.74;99826.59;4867649;28;20131;-61
2022/11/09 13:33:42;;;;;;;19.75;6.40;;;;;;;6.81;74.72;99814.41;4867196;28;20108;-61
2022/11/09 13:36:23;;;;;;;18.50;6.50;;;;;;;6.70;74.17;99770.34;4896993;28;20049;-61
2022/11/09 13:39:39;;;;;;;21.58;6.15;;;;;;;7.04;73.69;99790.81;4878317;28;20447;-61
2022/11/09 13:42:32;;;;;;;21.17;5.53;;;;;;;7.16;72.82;99790.69;4847486;28;20064;-61
2022/11/09 13:45:35;;;;;;;17.75;6.28;;;;;;;7.20;72.93;99787.19;4873631;28;20488;-61
2022/11/09 13:48:35;;;;;;;24.25;6.03;;;;;;;7.27;72.40;99788.88;4872441;28;20059;-60
2022/11/09 13:54:38;;;;;;;22.65;7.15;;;;;;;7.32;72.18;99735.09;4898107;28;20056;-61
2022/11/09 13:57:30;;;;;;;25.42;6.53;;;;;;;7.45;71.16;99750.53;4867446;28;20444;-60
2022/11/09 14:00:23;;;;;;;19.45;6.25;;;;;;;7.51;70.42;99719.25;4850048;28;20056;-62
2022/11/09 14:03:20;;;;;;;15.35;6.43;;;;;;;7.64;70.33;99731.25;4927839;28;20049;-61
2022/11/09 14:06:03;;;;;;;19.73;6.18;;;;;;;7.68;69.88;99719.91;4913090;28;20049;-60
2022/11/09 14:08:38;;;;;;;24.08;6.13;;;;;;;7.75;69.87;99716.34;4897700;28;20053;-60
2022/11/09 14:11:59;;;;;;;18.38;6.57;;;;;;;7.78;69.90;99718.91;4898725;28;20694;-61
2022/11/09 14:14:52;;;;;;;;;;;;;;;7.77;70.20;99726.75;4842507;28;20533;-62
2022/11/09 14:17:47;;;;;;;20.77;6.30;;;;;;;7.69;69.98;99698.25;4878641;28;20004;-61
2022/11/09 14:20:42;;;;;;;19.95;6.07;;;;;;;7.74;70.06;99693.84;4867220;28;20055;-60
2022/11/09 14:23:33;;;;;;;23.27;6.32;;;;;;;7.77;69.76;99712.00;4860442;28;20077;-61
2022/11/09 14:26:27;;;;;;;23.08;6.45;;;;;;;7.74;69.83;99709.44;4856691;28;20061;-61
2022/11/09 14:29:39;;;;;;;16.48;6.50;;;;;;;7.76;70.02;99705.09;4861692;28;20049;-61
2022/11/09 14:32:29;;;;;;;18.48;6.38;;;;;;;7.26;70.35;99625.16;4912111;28;20138;-61
2022/11/09 14:35:27;;;;;;;20.00;6.30;;;;;;;7.72;70.55;99702.53;4866474;28;20058;-61
2022/11/09 14:38:17;;;;;;;18.58;6.85;;;;;;;7.45;70.25;99646.56;4840254;28;20121;-60
2022/11/09 14:40:59;;;;;;;16.23;6.18;;;;;;;7.76;70.29;99694.69;4872304;28;20454;-61
2022/11/09 14:43:50;;;;;;;23.20;6.38;;;;;;;7.79;70.36;99685.97;4889337;28;20047;-61
2022/11/09 14:46:35;;;;;;;14.75;5.75;;;;;;;7.81;70.34;99678.13;4883152;28;20101;-61
2022/11/09 14:49:19;;;;;;;26.58;7.15;;;;;;;7.80;70.26;99679.03;4898435;28;20372;-62
2022/11/09 14:52:07;;;;;;;21.10;6.55;;;;;;;7.80;70.63;99681.63;4869386;28;20530;-61
2022/11/09 14:54:57;;;;;;;18.77;6.47;;;;;;;7.77;70.53;99680.78;4864637;28;20049;-61
2022/11/09 14:57:42;;;;;;;15.65;5.90;;;;;;;7.76;70.51;99675.59;4877164;28;20059;-61